sensor_id;sensor_type;location;lat;lon;timestamp;P1;durP1;ratioP1;P2;durP2;ratioP2
22230;SDS011;11284;48.086;-1.652;2023-12-14T00:01:26;7.35;;;1.35;;
22230;SDS011;11284;48.086;-1.652;2023-12-14T00:03:52;7.05;;;1.52;;
22230;SDS011;11284;48.086;-1.652;2023-12-14T00:06:18;5.72;;;1.38;;
22230;SDS011;11284;48.086;-1.652;2023-12-14T00:08:44;4.57;;;1.27;;
22230;SDS011;11284;48.086;-1.652;2023-12-14T00:11:11;4.90;;;1.15;;
22230;SDS011;11284;48.086;-1.652;2023-12-14T00:13:37;4.70;;;1.38;;
22230;SDS011;11284;48.086;-1.652;2023-12-14T00:16:03;6.18;;;1.40;;
22230;SDS011;11284;48.086;-1.652;2023-12-14T00:18:30;5.07;;;1.10;;
22230;SDS011;11284;48.086;-1.652;2023-12-14T00:20:56;4.35;;;1.10;;
22230;SDS011;11284;48.086;-1.652;2023-12-14T00:23:24;4.38;;;1.10;;
22230;SDS011;11284;48.086;-1.652;2023-12-14T00:25:50;5.60;;;1.10;;
22230;SDS011;11284;48.086;-1.652;2023-12-14T00:28:17;5.88;;;1.27;;
22230;SDS011;11284;48.086;-1.652;2023-12-14T00:30:43;6.28;;;1.60;;
22230;SDS011;11284;48.086;-1.652;2023-12-14T00:33:09;5.88;;;1.40;;
22230;SDS011;11284;48.086;-1.652;2023-12-14T00:35:35;5.45;;;1.50;;
22230;SDS011;11284;48.086;-1.652;2023-12-14T00:38:01;5.82;;;1.30;;
22230;SDS011;11284;48.086;-1.652;2023-12-14T00:40:27;6.47;;;1.33;;
22230;SDS011;11284;48.086;-1.652;2023-12-14T00:42:53;3.28;;;1.10;;
22230;SDS011;11284;48.086;-1.652;2023-12-14T00:45:19;6.20;;;1.30;;
22230;SDS011;11284;48.086;-1.652;2023-12-14T00:47:45;5.38;;;1.20;;
22230;SDS011;11284;48.086;-1.652;2023-12-14T00:50:11;5.28;;;1.13;;
22230;SDS011;11284;48.086;-1.652;2023-12-14T00:52:37;6.50;;;1.40;;
22230;SDS011;11284;48.086;-1.652;2023-12-14T00:55:03;9.55;;;2.17;;
22230;SDS011;11284;48.086;-1.652;2023-12-14T00:57:29;5.28;;;1.50;;
22230;SDS011;11284;48.086;-1.652;2023-12-14T00:59:55;5.13;;;1.38;;
22230;SDS011;11284;48.086;-1.652;2023-12-14T01:02:21;6.28;;;1.60;;
22230;SDS011;11284;48.086;-1.652;2023-12-14T01:04:47;5.72;;;1.38;;
22230;SDS011;11284;48.086;-1.652;2023-12-14T01:07:13;5.05;;;1.30;;
22230;SDS011;11284;48.086;-1.652;2023-12-14T01:09:39;5.60;;;1.42;;
22230;SDS011;11284;48.086;-1.652;2023-12-14T01:12:05;4.72;;;1.40;;
22230;SDS011;11284;48.086;-1.652;2023-12-14T01:14:31;6.20;;;1.48;;
22230;SDS011;11284;48.086;-1.652;2023-12-14T01:16:57;3.78;;;1.10;;
22230;SDS011;11284;48.086;-1.652;2023-12-14T01:19:23;4.75;;;1.30;;
22230;SDS011;11284;48.086;-1.652;2023-12-14T01:21:50;8.20;;;1.30;;
22230;SDS011;11284;48.086;-1.652;2023-12-14T01:24:16;6.50;;;1.20;;
22230;SDS011;11284;48.086;-1.652;2023-12-14T01:26:42;5.80;;;1.42;;
22230;SDS011;11284;48.086;-1.652;2023-12-14T01:29:08;4.90;;;1.30;;
22230;SDS011;11284;48.086;-1.652;2023-12-14T01:31:34;8.23;;;1.35;;
22230;SDS011;11284;48.086;-1.652;2023-12-14T01:34:00;5.47;;;1.40;;
22230;SDS011;11284;48.086;-1.652;2023-12-14T01:36:26;6.15;;;1.48;;
22230;SDS011;11284;48.086;-1.652;2023-12-14T01:38:52;5.88;;;1.50;;
22230;SDS011;11284;48.086;-1.652;2023-12-14T01:41:18;10.18;;;1.83;;
22230;SDS011;11284;48.086;-1.652;2023-12-14T01:43:44;6.32;;;1.55;;
22230;SDS011;11284;48.086;-1.652;2023-12-14T01:46:10;6.80;;;1.30;;
22230;SDS011;11284;48.086;-1.652;2023-12-14T01:48:37;6.07;;;1.40;;
22230;SDS011;11284;48.086;-1.652;2023-12-14T01:51:03;7.60;;;1.40;;
22230;SDS011;11284;48.086;-1.652;2023-12-14T01:53:29;5.85;;;1.27;;
22230;SDS011;11284;48.086;-1.652;2023-12-14T01:55:55;8.52;;;1.60;;
22230;SDS011;11284;48.086;-1.652;2023-12-14T01:58:21;6.78;;;1.90;;
22230;SDS011;11284;48.086;-1.652;2023-12-14T02:01:00;6.60;;;1.50;;
22230;SDS011;11284;48.086;-1.652;2023-12-14T02:03:29;7.15;;;1.85;;
22230;SDS011;11284;48.086;-1.652;2023-12-14T02:05:55;5.68;;;1.80;;
22230;SDS011;11284;48.086;-1.652;2023-12-14T02:08:23;7.97;;;1.60;;
22230;SDS011;11284;48.086;-1.652;2023-12-14T02:10:49;5.63;;;1.40;;
22230;SDS011;11284;48.086;-1.652;2023-12-14T02:13:15;7.10;;;1.65;;
22230;SDS011;11284;48.086;-1.652;2023-12-14T02:15:41;6.82;;;1.50;;
22230;SDS011;11284;48.086;-1.652;2023-12-14T02:18:07;5.57;;;1.60;;
22230;SDS011;11284;48.086;-1.652;2023-12-14T02:20:33;5.03;;;1.50;;
22230;SDS011;11284;48.086;-1.652;2023-12-14T02:22:59;5.82;;;1.70;;
22230;SDS011;11284;48.086;-1.652;2023-12-14T02:25:26;7.30;;;1.52;;
22230;SDS011;11284;48.086;-1.652;2023-12-14T02:27:53;6.82;;;1.50;;
22230;SDS011;11284;48.086;-1.652;2023-12-14T02:30:19;5.00;;;1.30;;
22230;SDS011;11284;48.086;-1.652;2023-12-14T02:32:45;6.78;;;1.60;;
22230;SDS011;11284;48.086;-1.652;2023-12-14T02:35:11;6.53;;;1.70;;
22230;SDS011;11284;48.086;-1.652;2023-12-14T02:37:37;8.98;;;1.70;;
22230;SDS011;11284;48.086;-1.652;2023-12-14T02:40:05;5.05;;;1.48;;
22230;SDS011;11284;48.086;-1.652;2023-12-14T02:42:32;4.50;;;1.40;;
22230;SDS011;11284;48.086;-1.652;2023-12-14T02:44:58;7.28;;;1.80;;
22230;SDS011;11284;48.086;-1.652;2023-12-14T02:47:24;7.63;;;1.65;;
22230;SDS011;11284;48.086;-1.652;2023-12-14T02:49:50;5.18;;;1.48;;
22230;SDS011;11284;48.086;-1.652;2023-12-14T02:52:16;5.38;;;1.95;;
22230;SDS011;11284;48.086;-1.652;2023-12-14T02:54:42;7.20;;;1.60;;
22230;SDS011;11284;48.086;-1.652;2023-12-14T02:57:08;8.50;;;2.22;;
22230;SDS011;11284;48.086;-1.652;2023-12-14T02:59:34;7.28;;;1.52;;
22230;SDS011;11284;48.086;-1.652;2023-12-14T03:02:00;6.72;;;1.70;;
22230;SDS011;11284;48.086;-1.652;2023-12-14T03:04:26;6.97;;;1.70;;
22230;SDS011;11284;48.086;-1.652;2023-12-14T03:06:52;7.55;;;1.60;;
22230;SDS011;11284;48.086;-1.652;2023-12-14T03:09:19;6.30;;;1.50;;
22230;SDS011;11284;48.086;-1.652;2023-12-14T03:11:45;5.57;;;1.80;;
22230;SDS011;11284;48.086;-1.652;2023-12-14T03:14:11;9.10;;;2.15;;
22230;SDS011;11284;48.086;-1.652;2023-12-14T03:16:37;5.55;;;1.58;;
22230;SDS011;11284;48.086;-1.652;2023-12-14T03:19:03;7.10;;;1.63;;
22230;SDS011;11284;48.086;-1.652;2023-12-14T03:21:29;7.00;;;1.67;;
22230;SDS011;11284;48.086;-1.652;2023-12-14T03:23:55;6.35;;;2.00;;
22230;SDS011;11284;48.086;-1.652;2023-12-14T03:26:21;6.97;;;1.77;;
22230;SDS011;11284;48.086;-1.652;2023-12-14T03:28:47;6.60;;;1.30;;
22230;SDS011;11284;48.086;-1.652;2023-12-14T03:31:13;6.47;;;1.40;;
22230;SDS011;11284;48.086;-1.652;2023-12-14T03:33:40;8.60;;;1.80;;
22230;SDS011;11284;48.086;-1.652;2023-12-14T03:36:06;8.65;;;1.55;;
22230;SDS011;11284;48.086;-1.652;2023-12-14T03:38:32;5.43;;;1.67;;
22230;SDS011;11284;48.086;-1.652;2023-12-14T03:40:58;6.57;;;1.70;;
22230;SDS011;11284;48.086;-1.652;2023-12-14T03:43:24;7.32;;;1.92;;
22230;SDS011;11284;48.086;-1.652;2023-12-14T03:45:50;6.55;;;1.65;;
22230;SDS011;11284;48.086;-1.652;2023-12-14T03:48:16;4.75;;;1.60;;
22230;SDS011;11284;48.086;-1.652;2023-12-14T03:50:42;8.65;;;1.90;;
22230;SDS011;11284;48.086;-1.652;2023-12-14T03:53:08;6.93;;;1.77;;
22230;SDS011;11284;48.086;-1.652;2023-12-14T03:55:34;6.40;;;2.00;;
22230;SDS011;11284;48.086;-1.652;2023-12-14T03:58:00;5.93;;;2.00;;
22230;SDS011;11284;48.086;-1.652;2023-12-14T04:00:26;6.57;;;1.88;;
22230;SDS011;11284;48.086;-1.652;2023-12-14T04:02:52;6.47;;;1.67;;
22230;SDS011;11284;48.086;-1.652;2023-12-14T04:05:18;8.75;;;2.25;;
22230;SDS011;11284;48.086;-1.652;2023-12-14T04:07:44;6.63;;;1.90;;
22230;SDS011;11284;48.086;-1.652;2023-12-14T04:10:11;6.75;;;2.20;;
22230;SDS011;11284;48.086;-1.652;2023-12-14T04:12:37;6.78;;;1.92;;
22230;SDS011;11284;48.086;-1.652;2023-12-14T04:15:04;6.20;;;1.98;;
22230;SDS011;11284;48.086;-1.652;2023-12-14T04:17:30;6.10;;;1.88;;
22230;SDS011;11284;48.086;-1.652;2023-12-14T04:19:57;9.05;;;1.95;;
22230;SDS011;11284;48.086;-1.652;2023-12-14T04:22:23;7.93;;;1.92;;
22230;SDS011;11284;48.086;-1.652;2023-12-14T04:24:49;4.70;;;1.83;;
22230;SDS011;11284;48.086;-1.652;2023-12-14T04:27:15;5.13;;;1.80;;
22230;SDS011;11284;48.086;-1.652;2023-12-14T04:29:41;6.30;;;2.05;;
22230;SDS011;11284;48.086;-1.652;2023-12-14T04:32:07;7.00;;;2.20;;
22230;SDS011;11284;48.086;-1.652;2023-12-14T04:34:33;7.25;;;2.50;;
22230;SDS011;11284;48.086;-1.652;2023-12-14T04:36:59;7.45;;;1.83;;
22230;SDS011;11284;48.086;-1.652;2023-12-14T04:39:25;6.22;;;2.08;;
22230;SDS011;11284;48.086;-1.652;2023-12-14T04:41:51;7.40;;;1.67;;
22230;SDS011;11284;48.086;-1.652;2023-12-14T04:44:18;5.28;;;1.65;;
22230;SDS011;11284;48.086;-1.652;2023-12-14T04:46:44;6.03;;;2.17;;
22230;SDS011;11284;48.086;-1.652;2023-12-14T04:49:10;9.52;;;2.05;;
22230;SDS011;11284;48.086;-1.652;2023-12-14T04:51:36;4.80;;;1.70;;
22230;SDS011;11284;48.086;-1.652;2023-12-14T04:54:03;5.32;;;1.77;;
22230;SDS011;11284;48.086;-1.652;2023-12-14T04:56:29;6.47;;;1.88;;
22230;SDS011;11284;48.086;-1.652;2023-12-14T04:58:55;6.47;;;2.30;;
22230;SDS011;11284;48.086;-1.652;2023-12-14T05:01:21;6.68;;;1.95;;
22230;SDS011;11284;48.086;-1.652;2023-12-14T05:03:47;6.32;;;2.13;;
22230;SDS011;11284;48.086;-1.652;2023-12-14T05:06:13;6.85;;;1.75;;
22230;SDS011;11284;48.086;-1.652;2023-12-14T05:08:39;8.13;;;1.92;;
22230;SDS011;11284;48.086;-1.652;2023-12-14T05:11:05;7.88;;;2.08;;
22230;SDS011;11284;48.086;-1.652;2023-12-14T05:13:31;8.27;;;2.10;;
22230;SDS011;11284;48.086;-1.652;2023-12-14T05:15:57;5.03;;;1.95;;
22230;SDS011;11284;48.086;-1.652;2023-12-14T05:18:23;5.60;;;1.83;;
22230;SDS011;11284;48.086;-1.652;2023-12-14T05:20:50;6.95;;;1.70;;
22230;SDS011;11284;48.086;-1.652;2023-12-14T05:23:16;7.85;;;2.00;;
22230;SDS011;11284;48.086;-1.652;2023-12-14T05:25:42;7.75;;;2.20;;
22230;SDS011;11284;48.086;-1.652;2023-12-14T05:28:08;7.68;;;2.08;;
22230;SDS011;11284;48.086;-1.652;2023-12-14T05:30:34;8.27;;;2.00;;
22230;SDS011;11284;48.086;-1.652;2023-12-14T05:33:00;6.60;;;2.33;;
22230;SDS011;11284;48.086;-1.652;2023-12-14T05:35:26;7.82;;;1.85;;
22230;SDS011;11284;48.086;-1.652;2023-12-14T05:37:52;7.68;;;2.60;;
22230;SDS011;11284;48.086;-1.652;2023-12-14T05:40:18;8.02;;;1.98;;
22230;SDS011;11284;48.086;-1.652;2023-12-14T05:42:44;6.78;;;2.38;;
22230;SDS011;11284;48.086;-1.652;2023-12-14T05:45:10;8.35;;;2.17;;
22230;SDS011;11284;48.086;-1.652;2023-12-14T05:47:36;7.97;;;2.10;;
22230;SDS011;11284;48.086;-1.652;2023-12-14T05:50:03;8.57;;;2.20;;
22230;SDS011;11284;48.086;-1.652;2023-12-14T05:52:29;6.50;;;2.40;;
22230;SDS011;11284;48.086;-1.652;2023-12-14T05:54:56;6.75;;;2.75;;
22230;SDS011;11284;48.086;-1.652;2023-12-14T05:57:22;7.40;;;2.45;;
22230;SDS011;11284;48.086;-1.652;2023-12-14T05:59:50;5.35;;;2.25;;
22230;SDS011;11284;48.086;-1.652;2023-12-14T06:02:16;5.55;;;2.00;;
22230;SDS011;11284;48.086;-1.652;2023-12-14T06:04:42;8.93;;;2.20;;
22230;SDS011;11284;48.086;-1.652;2023-12-14T06:07:08;8.27;;;2.40;;
22230;SDS011;11284;48.086;-1.652;2023-12-14T06:09:34;6.90;;;2.10;;
22230;SDS011;11284;48.086;-1.652;2023-12-14T06:12:03;8.60;;;2.40;;
22230;SDS011;11284;48.086;-1.652;2023-12-14T06:14:30;9.35;;;2.20;;
22230;SDS011;11284;48.086;-1.652;2023-12-14T06:16:56;7.57;;;2.50;;
22230;SDS011;11284;48.086;-1.652;2023-12-14T06:19:22;8.68;;;2.50;;
22230;SDS011;11284;48.086;-1.652;2023-12-14T06:21:48;8.88;;;2.60;;
22230;SDS011;11284;48.086;-1.652;2023-12-14T06:24:14;7.53;;;2.70;;
22230;SDS011;11284;48.086;-1.652;2023-12-14T06:26:41;6.68;;;2.58;;
22230;SDS011;11284;48.086;-1.652;2023-12-14T06:29:10;7.25;;;2.58;;
22230;SDS011;11284;48.086;-1.652;2023-12-14T06:31:37;8.32;;;2.33;;
22230;SDS011;11284;48.086;-1.652;2023-12-14T06:34:03;9.88;;;3.22;;
22230;SDS011;11284;48.086;-1.652;2023-12-14T06:36:32;9.63;;;3.05;;
22230;SDS011;11284;48.086;-1.652;2023-12-14T06:38:59;6.85;;;2.45;;
22230;SDS011;11284;48.086;-1.652;2023-12-14T06:41:26;9.30;;;2.45;;
22230;SDS011;11284;48.086;-1.652;2023-12-14T06:43:52;8.30;;;2.80;;
22230;SDS011;11284;48.086;-1.652;2023-12-14T06:46:19;6.07;;;3.00;;
22230;SDS011;11284;48.086;-1.652;2023-12-14T06:48:45;8.20;;;2.40;;
22230;SDS011;11284;48.086;-1.652;2023-12-14T06:51:11;5.65;;;2.67;;
22230;SDS011;11284;48.086;-1.652;2023-12-14T06:53:39;8.32;;;2.70;;
22230;SDS011;11284;48.086;-1.652;2023-12-14T06:56:06;8.90;;;2.78;;
22230;SDS011;11284;48.086;-1.652;2023-12-14T06:58:34;8.02;;;2.92;;
22230;SDS011;11284;48.086;-1.652;2023-12-14T07:01:00;7.68;;;2.80;;
22230;SDS011;11284;48.086;-1.652;2023-12-14T07:03:26;8.55;;;3.05;;
22230;SDS011;11284;48.086;-1.652;2023-12-14T07:05:52;8.43;;;2.60;;
22230;SDS011;11284;48.086;-1.652;2023-12-14T07:08:18;9.05;;;2.83;;
22230;SDS011;11284;48.086;-1.652;2023-12-14T07:10:44;8.73;;;2.88;;
22230;SDS011;11284;48.086;-1.652;2023-12-14T07:13:10;7.50;;;3.05;;
22230;SDS011;11284;48.086;-1.652;2023-12-14T07:15:36;9.00;;;2.72;;
22230;SDS011;11284;48.086;-1.652;2023-12-14T07:18:02;9.77;;;3.22;;
22230;SDS011;11284;48.086;-1.652;2023-12-14T07:20:28;7.80;;;2.80;;
22230;SDS011;11284;48.086;-1.652;2023-12-14T07:22:54;9.02;;;2.67;;
22230;SDS011;11284;48.086;-1.652;2023-12-14T07:25:20;8.38;;;2.40;;
22230;SDS011;11284;48.086;-1.652;2023-12-14T07:27:46;7.20;;;2.55;;
22230;SDS011;11284;48.086;-1.652;2023-12-14T07:30:13;7.63;;;2.65;;
22230;SDS011;11284;48.086;-1.652;2023-12-14T07:32:39;8.15;;;2.80;;
22230;SDS011;11284;48.086;-1.652;2023-12-14T07:35:05;7.82;;;2.33;;
22230;SDS011;11284;48.086;-1.652;2023-12-14T07:37:31;6.95;;;2.42;;
22230;SDS011;11284;48.086;-1.652;2023-12-14T07:39:57;10.48;;;2.80;;
22230;SDS011;11284;48.086;-1.652;2023-12-14T07:42:23;7.20;;;2.50;;
22230;SDS011;11284;48.086;-1.652;2023-12-14T07:44:50;7.55;;;2.70;;
22230;SDS011;11284;48.086;-1.652;2023-12-14T07:47:16;8.50;;;3.00;;
22230;SDS011;11284;48.086;-1.652;2023-12-14T07:49:43;6.97;;;2.80;;
22230;SDS011;11284;48.086;-1.652;2023-12-14T07:52:09;7.30;;;2.70;;
22230;SDS011;11284;48.086;-1.652;2023-12-14T07:54:35;7.38;;;2.58;;
22230;SDS011;11284;48.086;-1.652;2023-12-14T07:57:01;10.15;;;2.60;;
22230;SDS011;11284;48.086;-1.652;2023-12-14T07:59:27;8.93;;;2.78;;
22230;SDS011;11284;48.086;-1.652;2023-12-14T08:01:54;7.13;;;2.25;;
22230;SDS011;11284;48.086;-1.652;2023-12-14T08:04:20;7.78;;;2.78;;
22230;SDS011;11284;48.086;-1.652;2023-12-14T08:06:46;8.25;;;3.00;;
22230;SDS011;11284;48.086;-1.652;2023-12-14T08:09:12;6.35;;;2.50;;
22230;SDS011;11284;48.086;-1.652;2023-12-14T08:11:38;7.50;;;2.50;;
22230;SDS011;11284;48.086;-1.652;2023-12-14T08:14:04;6.72;;;2.65;;
22230;SDS011;11284;48.086;-1.652;2023-12-14T08:16:30;8.73;;;2.88;;
22230;SDS011;11284;48.086;-1.652;2023-12-14T08:18:56;9.63;;;2.75;;
22230;SDS011;11284;48.086;-1.652;2023-12-14T08:21:23;9.90;;;3.25;;
22230;SDS011;11284;48.086;-1.652;2023-12-14T08:23:49;8.93;;;2.65;;
22230;SDS011;11284;48.086;-1.652;2023-12-14T08:26:15;8.73;;;2.78;;
22230;SDS011;11284;48.086;-1.652;2023-12-14T08:28:41;7.75;;;3.05;;
22230;SDS011;11284;48.086;-1.652;2023-12-14T08:31:08;9.40;;;3.88;;
22230;SDS011;11284;48.086;-1.652;2023-12-14T08:33:36;8.05;;;3.30;;
22230;SDS011;11284;48.086;-1.652;2023-12-14T08:36:03;7.10;;;3.30;;
22230;SDS011;11284;48.086;-1.652;2023-12-14T08:38:30;5.95;;;2.67;;
22230;SDS011;11284;48.086;-1.652;2023-12-14T08:40:56;10.75;;;3.30;;
22230;SDS011;11284;48.086;-1.652;2023-12-14T08:43:22;7.10;;;3.70;;
22230;SDS011;11284;48.086;-1.652;2023-12-14T08:45:48;8.80;;;3.75;;
22230;SDS011;11284;48.086;-1.652;2023-12-14T08:48:14;10.80;;;3.80;;
22230;SDS011;11284;48.086;-1.652;2023-12-14T08:50:40;6.22;;;3.05;;
22230;SDS011;11284;48.086;-1.652;2023-12-14T08:53:06;8.40;;;3.58;;
22230;SDS011;11284;48.086;-1.652;2023-12-14T08:55:33;7.88;;;3.13;;
22230;SDS011;11284;48.086;-1.652;2023-12-14T08:57:59;10.70;;;3.58;;
22230;SDS011;11284;48.086;-1.652;2023-12-14T09:00:26;8.68;;;4.35;;
22230;SDS011;11284;48.086;-1.652;2023-12-14T09:02:51;10.85;;;5.43;;
22230;SDS011;11284;48.086;-1.652;2023-12-14T09:05:17;7.20;;;3.17;;
22230;SDS011;11284;48.086;-1.652;2023-12-14T09:07:45;6.35;;;3.08;;
22230;SDS011;11284;48.086;-1.652;2023-12-14T09:10:11;7.47;;;4.10;;
22230;SDS011;11284;48.086;-1.652;2023-12-14T09:12:37;10.75;;;4.25;;
22230;SDS011;11284;48.086;-1.652;2023-12-14T09:15:03;8.02;;;3.75;;
22230;SDS011;11284;48.086;-1.652;2023-12-14T09:17:29;9.27;;;3.30;;
22230;SDS011;11284;48.086;-1.652;2023-12-14T09:19:59;11.07;;;3.83;;
22230;SDS011;11284;48.086;-1.652;2023-12-14T09:22:25;7.38;;;3.45;;
22230;SDS011;11284;48.086;-1.652;2023-12-14T09:24:52;7.32;;;3.35;;
22230;SDS011;11284;48.086;-1.652;2023-12-14T09:27:18;8.02;;;3.30;;
22230;SDS011;11284;48.086;-1.652;2023-12-14T09:29:44;6.60;;;3.00;;
22230;SDS011;11284;48.086;-1.652;2023-12-14T09:32:10;7.05;;;2.67;;
22230;SDS011;11284;48.086;-1.652;2023-12-14T09:34:36;6.15;;;2.75;;
22230;SDS011;11284;48.086;-1.652;2023-12-14T09:37:02;7.28;;;2.90;;
22230;SDS011;11284;48.086;-1.652;2023-12-14T09:39:28;8.45;;;3.22;;
22230;SDS011;11284;48.086;-1.652;2023-12-14T09:42:04;9.27;;;3.20;;
22230;SDS011;11284;48.086;-1.652;2023-12-14T09:44:30;8.85;;;3.40;;
22230;SDS011;11284;48.086;-1.652;2023-12-14T09:46:57;10.55;;;4.00;;
22230;SDS011;11284;48.086;-1.652;2023-12-14T09:49:25;7.72;;;3.70;;
22230;SDS011;11284;48.086;-1.652;2023-12-14T09:51:58;8.82;;;3.38;;
22230;SDS011;11284;48.086;-1.652;2023-12-14T09:54:27;9.45;;;4.00;;
22230;SDS011;11284;48.086;-1.652;2023-12-14T09:56:53;7.93;;;3.70;;
22230;SDS011;11284;48.086;-1.652;2023-12-14T09:59:19;10.73;;;4.00;;
22230;SDS011;11284;48.086;-1.652;2023-12-14T10:01:46;10.07;;;4.20;;
22230;SDS011;11284;48.086;-1.652;2023-12-14T10:04:19;10.23;;;3.80;;
22230;SDS011;11284;48.086;-1.652;2023-12-14T10:06:47;9.57;;;4.25;;
22230;SDS011;11284;48.086;-1.652;2023-12-14T10:09:13;10.90;;;4.40;;
22230;SDS011;11284;48.086;-1.652;2023-12-14T10:11:41;10.00;;;4.90;;
22230;SDS011;11284;48.086;-1.652;2023-12-14T10:14:24;13.13;;;4.82;;
22230;SDS011;11284;48.086;-1.652;2023-12-14T10:16:50;9.70;;;4.75;;
22230;SDS011;11284;48.086;-1.652;2023-12-14T10:19:17;11.27;;;4.55;;
22230;SDS011;11284;48.086;-1.652;2023-12-14T10:21:43;8.65;;;4.32;;
22230;SDS011;11284;48.086;-1.652;2023-12-14T10:24:09;10.25;;;4.38;;
22230;SDS011;11284;48.086;-1.652;2023-12-14T10:26:36;11.30;;;5.32;;
22230;SDS011;11284;48.086;-1.652;2023-12-14T10:29:02;9.82;;;4.32;;
22230;SDS011;11284;48.086;-1.652;2023-12-14T10:31:30;8.15;;;3.38;;
22230;SDS011;11284;48.086;-1.652;2023-12-14T10:33:56;10.68;;;4.05;;
22230;SDS011;11284;48.086;-1.652;2023-12-14T10:36:22;8.80;;;3.83;;
22230;SDS011;11284;48.086;-1.652;2023-12-14T10:38:53;9.70;;;4.07;;
22230;SDS011;11284;48.086;-1.652;2023-12-14T10:41:22;11.90;;;4.45;;
22230;SDS011;11284;48.086;-1.652;2023-12-14T10:43:49;7.65;;;3.90;;
22230;SDS011;11284;48.086;-1.652;2023-12-14T10:46:16;7.60;;;3.40;;
22230;SDS011;11284;48.086;-1.652;2023-12-14T10:48:43;8.55;;;3.85;;
22230;SDS011;11284;48.086;-1.652;2023-12-14T10:51:14;10.07;;;3.60;;
22230;SDS011;11284;48.086;-1.652;2023-12-14T10:53:40;7.28;;;3.08;;
22230;SDS011;11284;48.086;-1.652;2023-12-14T10:56:12;12.07;;;3.60;;
22230;SDS011;11284;48.086;-1.652;2023-12-14T10:58:45;11.07;;;3.45;;
22230;SDS011;11284;48.086;-1.652;2023-12-14T11:01:16;10.02;;;3.25;;
22230;SDS011;11284;48.086;-1.652;2023-12-14T11:03:42;6.57;;;3.30;;
22230;SDS011;11284;48.086;-1.652;2023-12-14T11:08:54;7.05;;;3.55;;
22230;SDS011;11284;48.086;-1.652;2023-12-14T11:11:20;7.65;;;3.20;;
22230;SDS011;11284;48.086;-1.652;2023-12-14T11:13:52;7.50;;;3.47;;
22230;SDS011;11284;48.086;-1.652;2023-12-14T11:16:19;6.97;;;3.10;;
22230;SDS011;11284;48.086;-1.652;2023-12-14T11:18:46;6.07;;;2.85;;
22230;SDS011;11284;48.086;-1.652;2023-12-14T11:21:21;7.97;;;2.80;;
22230;SDS011;11284;48.086;-1.652;2023-12-14T11:23:51;6.13;;;3.10;;
22230;SDS011;11284;48.086;-1.652;2023-12-14T11:26:22;10.07;;;3.90;;
22230;SDS011;11284;48.086;-1.652;2023-12-14T11:28:53;8.02;;;3.13;;
22230;SDS011;11284;48.086;-1.652;2023-12-14T11:31:19;8.60;;;3.40;;
22230;SDS011;11284;48.086;-1.652;2023-12-14T11:33:45;7.28;;;3.22;;
22230;SDS011;11284;48.086;-1.652;2023-12-14T11:36:13;8.52;;;3.05;;
22230;SDS011;11284;48.086;-1.652;2023-12-14T11:38:39;9.52;;;3.20;;
22230;SDS011;11284;48.086;-1.652;2023-12-14T11:41:05;7.53;;;3.22;;
22230;SDS011;11284;48.086;-1.652;2023-12-14T11:43:39;8.13;;;3.13;;
22230;SDS011;11284;48.086;-1.652;2023-12-14T11:46:05;10.27;;;3.80;;
22230;SDS011;11284;48.086;-1.652;2023-12-14T11:48:31;6.25;;;3.40;;
22230;SDS011;11284;48.086;-1.652;2023-12-14T11:50:57;12.43;;;4.00;;
22230;SDS011;11284;48.086;-1.652;2023-12-14T11:53:23;9.20;;;3.63;;
22230;SDS011;11284;48.086;-1.652;2023-12-14T11:55:49;12.57;;;4.13;;
22230;SDS011;11284;48.086;-1.652;2023-12-14T11:58:15;7.10;;;3.33;;
22230;SDS011;11284;48.086;-1.652;2023-12-14T12:00:41;8.68;;;3.33;;
22230;SDS011;11284;48.086;-1.652;2023-12-14T12:03:11;7.63;;;3.85;;
22230;SDS011;11284;48.086;-1.652;2023-12-14T12:05:38;8.85;;;3.63;;
22230;SDS011;11284;48.086;-1.652;2023-12-14T12:08:04;10.32;;;3.67;;
22230;SDS011;11284;48.086;-1.652;2023-12-14T12:10:31;10.75;;;4.10;;
22230;SDS011;11284;48.086;-1.652;2023-12-14T12:13:03;8.38;;;3.50;;
22230;SDS011;11284;48.086;-1.652;2023-12-14T12:15:32;10.63;;;4.50;;
22230;SDS011;11284;48.086;-1.652;2023-12-14T12:18:02;10.80;;;4.22;;
22230;SDS011;11284;48.086;-1.652;2023-12-14T12:20:28;9.48;;;4.28;;
22230;SDS011;11284;48.086;-1.652;2023-12-14T12:22:54;9.52;;;4.10;;
22230;SDS011;11284;48.086;-1.652;2023-12-14T12:25:20;9.35;;;3.83;;
22230;SDS011;11284;48.086;-1.652;2023-12-14T12:27:47;12.02;;;3.95;;
22230;SDS011;11284;48.086;-1.652;2023-12-14T12:30:13;11.80;;;3.80;;
22230;SDS011;11284;48.086;-1.652;2023-12-14T12:32:40;10.02;;;3.80;;
22230;SDS011;11284;48.086;-1.652;2023-12-14T12:35:06;9.98;;;3.92;;
22230;SDS011;11284;48.086;-1.652;2023-12-14T12:37:33;9.00;;;4.00;;
22230;SDS011;11284;48.086;-1.652;2023-12-14T12:39:59;10.38;;;3.83;;
22230;SDS011;11284;48.086;-1.652;2023-12-14T12:42:25;10.20;;;4.20;;
22230;SDS011;11284;48.086;-1.652;2023-12-14T12:44:51;12.45;;;4.43;;
22230;SDS011;11284;48.086;-1.652;2023-12-14T12:47:17;11.93;;;4.00;;
22230;SDS011;11284;48.086;-1.652;2023-12-14T12:49:43;10.65;;;4.30;;
22230;SDS011;11284;48.086;-1.652;2023-12-14T12:52:09;14.40;;;4.70;;
22230;SDS011;11284;48.086;-1.652;2023-12-14T12:54:35;12.57;;;4.78;;
22230;SDS011;11284;48.086;-1.652;2023-12-14T12:57:01;10.02;;;5.28;;
22230;SDS011;11284;48.086;-1.652;2023-12-14T12:59:27;10.85;;;5.30;;
22230;SDS011;11284;48.086;-1.652;2023-12-14T13:01:53;12.32;;;5.53;;
22230;SDS011;11284;48.086;-1.652;2023-12-14T13:04:19;13.70;;;5.78;;
22230;SDS011;11284;48.086;-1.652;2023-12-14T13:06:46;14.25;;;5.95;;
22230;SDS011;11284;48.086;-1.652;2023-12-14T13:09:13;12.93;;;5.65;;
22230;SDS011;11284;48.086;-1.652;2023-12-14T13:11:39;14.73;;;6.10;;
22230;SDS011;11284;48.086;-1.652;2023-12-14T13:14:06;12.55;;;5.72;;
22230;SDS011;11284;48.086;-1.652;2023-12-14T13:16:33;11.43;;;5.32;;
22230;SDS011;11284;48.086;-1.652;2023-12-14T13:18:59;14.65;;;6.25;;
22230;SDS011;11284;48.086;-1.652;2023-12-14T13:21:25;13.20;;;5.88;;
22230;SDS011;11284;48.086;-1.652;2023-12-14T13:23:51;13.15;;;5.45;;
22230;SDS011;11284;48.086;-1.652;2023-12-14T13:26:18;10.80;;;5.30;;
22230;SDS011;11284;48.086;-1.652;2023-12-14T13:28:44;14.50;;;4.78;;
22230;SDS011;11284;48.086;-1.652;2023-12-14T13:31:10;14.35;;;5.40;;
22230;SDS011;11284;48.086;-1.652;2023-12-14T13:33:36;13.25;;;5.28;;
22230;SDS011;11284;48.086;-1.652;2023-12-14T13:36:02;15.00;;;5.45;;
22230;SDS011;11284;48.086;-1.652;2023-12-14T13:38:28;13.82;;;5.45;;
22230;SDS011;11284;48.086;-1.652;2023-12-14T13:40:56;12.20;;;4.65;;
22230;SDS011;11284;48.086;-1.652;2023-12-14T13:43:22;9.88;;;4.45;;
22230;SDS011;11284;48.086;-1.652;2023-12-14T13:45:48;14.43;;;4.28;;
22230;SDS011;11284;48.086;-1.652;2023-12-14T13:48:17;10.82;;;4.57;;
22230;SDS011;11284;48.086;-1.652;2023-12-14T13:50:43;13.32;;;4.80;;
22230;SDS011;11284;48.086;-1.652;2023-12-14T13:53:09;10.68;;;4.60;;
22230;SDS011;11284;48.086;-1.652;2023-12-14T13:55:35;12.45;;;4.47;;
22230;SDS011;11284;48.086;-1.652;2023-12-14T13:58:01;10.52;;;4.80;;
22230;SDS011;11284;48.086;-1.652;2023-12-14T14:00:27;11.05;;;4.00;;
22230;SDS011;11284;48.086;-1.652;2023-12-14T14:02:53;13.27;;;4.50;;
22230;SDS011;11284;48.086;-1.652;2023-12-14T14:05:19;10.07;;;3.63;;
22230;SDS011;11284;48.086;-1.652;2023-12-14T14:07:45;7.60;;;3.75;;
22230;SDS011;11284;48.086;-1.652;2023-12-14T14:10:12;11.60;;;4.22;;
22230;SDS011;11284;48.086;-1.652;2023-12-14T14:12:38;9.75;;;3.53;;
22230;SDS011;11284;48.086;-1.652;2023-12-14T14:15:04;9.15;;;3.70;;
22230;SDS011;11284;48.086;-1.652;2023-12-14T14:17:31;9.48;;;3.40;;
22230;SDS011;11284;48.086;-1.652;2023-12-14T14:19:57;9.25;;;3.92;;
22230;SDS011;11284;48.086;-1.652;2023-12-14T14:22:23;10.38;;;4.10;;
22230;SDS011;11284;48.086;-1.652;2023-12-14T14:24:49;12.27;;;3.53;;
22230;SDS011;11284;48.086;-1.652;2023-12-14T14:27:15;10.20;;;4.00;;
22230;SDS011;11284;48.086;-1.652;2023-12-14T14:29:41;9.02;;;4.20;;